WetterOnline ( https://www.wetteronline.de )

Wetter aktuell Sankt Peter-Ording

Aktuelles Wetter: St. Peter-Ording (11m)

6-stündlich | Neueste Meldungen
Ortszeit Temperatur Wetter
Do, 18.04. 20:00 7.3° C bedeckt
Do, 18.04. 14:00 10.4° C wolkig
Do, 18.04. 8:00 7.7° C fast wolkenlos
Do, 18.04. 2:00 5.5° C fast wolkenlos
Mi, 17.04. 20:00 8.0° C leicht bewölkt
Mi, 17.04. 14:00 9.2° C Sprühregen
Mi, 17.04. 8:00 8.3° C leicht bewölkt
Mi, 17.04. 2:00 7.7° C bewölkt
Ortszeit Temperatur Wetter
Do, 18.04. 20:00 7.3° C bedeckt
Do, 18.04. 19:50 7.3° C bedeckt
Do, 18.04. 19:40 7.3° C bedeckt
Do, 18.04. 19:30 7.3° C bedeckt
Do, 18.04. 19:20 7.3° C bedeckt
Do, 18.04. 19:10 7.3° C bedeckt
Do, 18.04. 19:00 7.5° C bedeckt
Do, 18.04. 18:30 7.6° C bedeckt
Do, 18.04. 18:00 7.6° C bedeckt
Do, 18.04. 17:30 7.8° C bedeckt
Do, 18.04. 17:00 7.6° C bedeckt
Ortszeit Relative Feuchte Sichtweite
Do, 18.04. 20:00 68% 40 km
Do, 18.04. 14:00 67% 40 km
Do, 18.04. 8:00 77% 45 km
Do, 18.04. 2:00 92% 45 km
Mi, 17.04. 20:00 73% 40 km
Mi, 17.04. 14:00 70% 35 km
Mi, 17.04. 8:00 73% 50 km
Mi, 17.04. 2:00 76% >70 km
Ortszeit Relative Feuchte Sichtweite
Do, 18.04. 20:00 68% 40 km
Do, 18.04. 19:50 68% -
Do, 18.04. 19:40 66% -
Do, 18.04. 19:30 65% 45 km
Do, 18.04. 19:20 65% -
Do, 18.04. 19:10 66% -
Do, 18.04. 19:00 63% 45 km
Do, 18.04. 18:30 63% 40 km
Do, 18.04. 18:00 66% 40 km
Do, 18.04. 17:30 63% 40 km
Do, 18.04. 17:00 62% 50 km
Ortszeit Niederschlagsmenge Niederschlagsart
Do, 18.04. 20:00 0.0 l/m2 in 3 Std. Sprühregen
Do, 18.04. 14:00 0.0 l/m2 in 6 Std. Regen
Do, 18.04. 8:00 0.0 l/m2 in 12 Std. -
Do, 18.04. 2:00 0.0 l/m2 in 6 Std. -
Mi, 17.04. 20:00 0.1 l/m2 in 12 Std. Regen
Mi, 17.04. 14:00 0.1 l/m2 in 6 Std. Regen
Mi, 17.04. 8:00 0.1 l/m2 in 12 Std. -
Mi, 17.04. 2:00 0.1 l/m2 in 6 Std. Regen
Ortszeit Niederschlagsmenge Niederschlagsart
Do, 18.04. 20:00 0.0 l/m2 in 1 Std. Sprühregen
Do, 18.04. 19:50 keine Meldung -
Do, 18.04. 19:40 keine Meldung -
Do, 18.04. 19:30 0.0 l/m2 in 30 Min -
Do, 18.04. 19:20 keine Meldung -
Do, 18.04. 19:10 keine Meldung -
Do, 18.04. 19:00 0.0 l/m2 in 1 Std. -
Do, 18.04. 18:30 0.0 l/m2 in 30 Min -
Do, 18.04. 18:00 0.0 l/m2 in 1 Std. -
Do, 18.04. 17:30 0.0 l/m2 in 30 Min -
Do, 18.04. 17:00 0.0 l/m2 in 1 Std. Sprühregen
Ortszeit Stärke Spitze Richtung
km/h Bft. km/h Grad Sektor
Do, 18.04. 20:00 28 4 46 280° W
Do, 18.04. 14:00 29 5 36 290° W
Do, 18.04. 8:00 18 3 29 310° NW
Do, 18.04. 2:00 7 2 31 50° NO
Mi, 17.04. 20:00 22 4 32 340° N
Mi, 17.04. 14:00 15 3 33 330° NW
Mi, 17.04. 8:00 13 3 33 350° N
Mi, 17.04. 2:00 22 4 32 350° N
Ortszeit Stärke Spitze Richtung
km/h Bft. km/h Grad Sektor
Do, 18.04. 20:00 28 4 43 280° W
Do, 18.04. 19:50 28 4 - 280° W
Do, 18.04. 19:40 29 5 - 280° W
Do, 18.04. 19:30 32 5 43 280° W
Do, 18.04. 19:20 32 5 - 280° W
Do, 18.04. 19:10 30 5 - 280° W
Do, 18.04. 19:00 31 5 46 280° W
Do, 18.04. 18:30 33 5 46 280° W
Do, 18.04. 18:00 31 5 44 280° W
Do, 18.04. 17:30 31 5 44 280° W
Do, 18.04. 17:00 28 4 44 280° W
Ortszeit Untergrenze Bedeckung Gattung
total tief tief mittel hoch
Do, 18.04. 20:00 1020 m 8/8 8/8 - - -
Do, 18.04. 14:00 750 m 6/8 6/8 - - -
Do, 18.04. 8:00 660 m 1/8 1/8 - - -
Do, 18.04. 2:00 720 m 1/8 1/8 - - -
Mi, 17.04. 20:00 720 m 4/8 2/8 - - -
Mi, 17.04. 14:00 1500 m 8/8 8/8 - - -
Mi, 17.04. 8:00 660 m 5/8 2/8 - - -
Mi, 17.04. 2:00 1800 m 8/8 5/8 - - -
Ortszeit Bedeckungsgrad in Achtel und Wolkenuntergrenze
Do, 18.04. 20:00 8(1020m)
Do, 18.04. 19:50 8(1020m)
Do, 18.04. 19:40 8
Do, 18.04. 19:30 8(990m)
Do, 18.04. 19:20 8(990m)
Do, 18.04. 19:10 8
Do, 18.04. 19:00 8(1020m)
Do, 18.04. 18:30 8(1080m)
Do, 18.04. 18:00 8(1050m)
Do, 18.04. 17:30 8(1110m)
Do, 18.04. 17:00 8(1110m)
Ortszeit Luftdruck NN (hPa) Tendenz (hPa in 3 Std.)
Do, 18.04. 20:00 1015 - 1,1
Do, 18.04. 14:00 1017 + 0,2
Do, 18.04. 8:00 1016 + 1,1
Do, 18.04. 2:00 1014 + 1,2
Mi, 17.04. 20:00 1011 + 1,2
Mi, 17.04. 14:00 1010 + 0,5
Mi, 17.04. 8:00 1008 + 0,6
Mi, 17.04. 2:00 1008 + 0,9
Ortszeit Luftdruck NN (hPa) Tendenz (hPa in 3 Std.)
Do, 18.04. 20:00 1015 - 1,1
Do, 18.04. 19:50 1015 keine Meldung
Do, 18.04. 19:40 1015 keine Meldung
Do, 18.04. 19:30 1015 - 1,2
Do, 18.04. 19:20 1015 keine Meldung
Do, 18.04. 19:10 1015 keine Meldung
Do, 18.04. 19:00 1015 - 1,1
Do, 18.04. 18:30 1016 - 0,9
Do, 18.04. 18:00 1016 - 0,6
Do, 18.04. 17:30 1016 - 0,6
Do, 18.04. 17:00 1016 - 0,5
Ortszeit Schneehöhe (cm)
Do, 18.04. 20:00 0
Do, 18.04. 14:00 0
Do, 18.04. 8:00 0
Do, 18.04. 2:00 0
Mi, 17.04. 20:00 0
Mi, 17.04. 14:00 0
Mi, 17.04. 8:00 0
Mi, 17.04. 2:00 0
Ortszeit Schneehöhe (cm)
Do, 18.04. 20:00 0
Do, 18.04. 19:50 0
Do, 18.04. 19:40 -
Do, 18.04. 19:30 0
Do, 18.04. 19:20 0
Do, 18.04. 19:10 -
Do, 18.04. 19:00 0
Do, 18.04. 18:30 0
Do, 18.04. 18:00 0
Do, 18.04. 17:30 0
Do, 18.04. 17:00 0
Link zu dieser Seite / Seite empfehlen

Das Wetter in ...